Decoded Metar for KGAD (GADSDEN MUNI in AL, USA) (IATA:GAD) | Meteo·Mobile Aviation Weather
aviador You're here:

KGAD Decoded Metar

GADSDEN MUNI in AL, USA
Report Time2019-02-16 06:56:00
UTC Time2019-02-16 07:44:48
Flight Rules ifr IFR
Wind210° at 06 kt
W.Decomp.*RWY 24: 5.3 kt HW 2.7 kt LCW
RWY 18: 5.0 kt HW 3.3 kt RCW
W.Rank210° ranks 13
Current wind is above 210° avg. (5.0)
Visibility9999 m
Phenomena:Light Rain
Clouds:Overcast 007 Hf
Ceiling700 ft
Temp16°C (ISA +2)
Dew Point16°C (100% RH)
AAT15.8°C
QNH1006 hPa
Density Alt1,302 ft
Elevation568 ft
Report Wrong Elevation
Raw Report
METAR KGAD 160656Z AUTO 21006KT 10SM -RA OVC007 16/16 A2971 RMK AO2
SLP064 P0001 T01610161=

Extra information for KGAD:More info

Metar Taf Metar & Taf Last 4 Metars F.Rules Stats Wind Profile Meteogram Temp Stats Airport Information Weather charts Add Link Nearby VenuesMetar ALERT Operation Metar Decoded Social comments

AIRNAV info for KGAD